Bogota, Colombia
Current Conditions -  °F | °C
As of 4:00 AM on Friday 31 Oct 2014 (Local Time) from SKBO Reporting Station
Moderate Fog Moderate Fog  
Wind Chill: 54°   Ceiling: Unl
Heat Index: 54°   Visibility: 5mi
Dew Point: 52°   Wind: 0mph
Humidity: 94%   Direction: NA
Pressure: 30.24"   Gusts: NA
Location:  4.63°N, 74.09°W
Report Text: SKBO 310900Z 00000KT 8000 VCFG SCT017 SCT070 12/11 A3024
Loading
Personal Weather Stations






























Interactive Weather Map
Tropical Storm Tracking
New forecast layout! Learn more

10-Day Weather Forecast

Advertisements
Track Severe Weather on mobile